createdAt,value
2022-09-06T00:00:39.033Z,2.33
2022-09-06T00:03:41.475Z,2.00
2022-09-06T00:06:43.653Z,2.35
2022-09-06T00:09:45.455Z,2.20
2022-09-06T00:12:47.927Z,1.70
2022-09-06T00:15:49.768Z,1.88
2022-09-06T00:18:55.601Z,1.50
2022-09-06T00:21:57.365Z,2.03
2022-09-06T00:25:01.089Z,1.77
2022-09-06T00:28:05.217Z,2.08
2022-09-06T00:31:18.251Z,1.98
2022-09-06T00:34:20.290Z,1.80
2022-09-06T00:37:22.063Z,1.60
2022-09-06T00:40:24.166Z,1.95
2022-09-06T00:43:26.421Z,1.52
2022-09-06T00:46:29.918Z,1.90
2022-09-06T00:49:35.764Z,1.92
2022-09-06T00:52:38.495Z,2.03
2022-09-06T00:55:43.282Z,1.85
2022-09-06T00:58:45.184Z,1.73
2022-09-06T01:01:47.161Z,1.77
2022-09-06T01:04:49.984Z,2.00
2022-09-06T01:08:03.402Z,2.13
2022-09-06T01:11:34.181Z,1.73
2022-09-06T01:14:45.692Z,2.15
2022-09-06T01:17:56.612Z,2.15
2022-09-06T01:21:25.380Z,1.88
2022-09-06T01:24:31.013Z,2.45
2022-09-06T01:27:51.516Z,2.00
2022-09-06T01:31:05.291Z,2.70
2022-09-06T01:34:16.741Z,2.85
2022-09-06T01:37:23.223Z,3.65
2022-09-06T01:40:25.895Z,3.63
2022-09-06T01:43:33.230Z,3.72
2022-09-06T01:47:05.371Z,3.65
2022-09-06T01:50:16.511Z,3.53
2022-09-06T01:53:36.744Z,3.20
2022-09-06T01:57:02.032Z,2.80
2022-09-06T02:00:11.188Z,2.22
2022-09-06T02:03:25.224Z,2.33
2022-09-06T02:06:30.283Z,2.30
2022-09-06T02:09:37.100Z,2.83
2022-09-06T02:12:41.556Z,2.13
2022-09-06T02:15:47.675Z,2.10
2022-09-06T02:19:09.636Z,2.40
2022-09-06T02:22:13.716Z,2.35
2022-09-06T02:25:22.866Z,2.15
2022-09-06T02:28:25.255Z,2.03
2022-09-06T02:31:34.973Z,2.25
2022-09-06T02:34:40.395Z,2.63
2022-09-06T02:37:42.827Z,2.55
2022-09-06T02:40:45.844Z,2.90
2022-09-06T02:43:47.644Z,2.28
2022-09-06T02:46:51.822Z,2.40
2022-09-06T02:49:56.909Z,2.35
2022-09-06T02:53:10.305Z,1.98
2022-09-06T02:56:13.544Z,2.00
2022-09-06T02:59:15.367Z,2.33
2022-09-06T03:02:17.397Z,1.70
2022-09-06T03:05:19.593Z,2.33
2022-09-06T03:08:25.898Z,2.67
2022-09-06T03:11:28.557Z,2.25
2022-09-06T03:14:30.495Z,2.55
2022-09-06T03:17:33.785Z,3.08
2022-09-06T03:20:37.223Z,3.22
2022-09-06T03:23:39.735Z,4.22
2022-09-06T03:26:44.509Z,3.22
2022-09-06T03:29:46.427Z,2.50
2022-09-06T03:32:49.128Z,2.85
2022-09-06T03:35:53.550Z,3.22
2022-09-06T03:38:55.652Z,2.50
2022-09-06T03:41:57.526Z,2.88
2022-09-06T03:45:00.795Z,3.20
2022-09-06T03:48:02.885Z,3.20
2022-09-06T03:51:04.921Z,2.80
2022-09-06T03:54:06.704Z,2.50
2022-09-06T03:57:09.276Z,2.28
2022-09-06T04:00:11.723Z,2.30
2022-09-06T04:03:13.538Z,2.28
2022-09-06T04:06:15.561Z,1.90
2022-09-06T04:09:17.461Z,2.70
2022-09-06T04:12:19.384Z,1.95
2022-09-06T04:15:21.294Z,2.60
2022-09-06T04:18:23.567Z,2.38
2022-09-06T04:21:25.642Z,3.50
2022-09-06T04:24:27.508Z,3.90
2022-09-06T04:27:29.498Z,4.13
2022-09-06T04:30:31.577Z,3.90
2022-09-06T04:33:35.254Z,3.55
2022-09-06T04:36:37.445Z,3.60
2022-09-06T04:39:39.313Z,4.47
2022-09-06T04:42:41.246Z,4.28
2022-09-06T04:45:43.459Z,4.60
2022-09-06T04:48:45.319Z,4.80
2022-09-06T04:51:47.212Z,4.80
2022-09-06T04:54:49.080Z,4.88
2022-09-06T04:57:51.451Z,4.75
2022-09-06T05:00:53.760Z,5.15
2022-09-06T05:03:57.059Z,4.60
2022-09-06T05:07:05.675Z,3.85
2022-09-06T05:10:07.995Z,4.90
2022-09-06T05:13:09.904Z,4.13
2022-09-06T05:16:12.443Z,2.90
2022-09-06T05:19:14.609Z,3.53
2022-09-06T05:22:16.601Z,2.47
2022-09-06T05:25:18.665Z,2.28
2022-09-06T05:28:20.708Z,2.72
2022-09-06T05:31:28.727Z,2.65
2022-09-06T05:34:31.593Z,3.38
2022-09-06T05:37:33.676Z,3.38
2022-09-06T05:40:38.026Z,4.13
2022-09-06T05:43:40.055Z,4.20
2022-09-06T05:46:45.473Z,4.05
2022-09-06T05:49:47.674Z,4.22
2022-09-06T05:52:54.082Z,3.97
2022-09-06T05:55:56.080Z,4.10
2022-09-06T05:58:58.121Z,3.88
2022-09-06T06:02:00.987Z,3.90
2022-09-06T06:05:04.777Z,4.10
2022-09-06T06:08:06.911Z,4.07
2022-09-06T06:11:10.027Z,3.83
2022-09-06T06:14:12.065Z,4.70
2022-09-06T06:17:14.300Z,4.32
2022-09-06T06:20:16.299Z,4.35
2022-09-06T06:23:18.154Z,4.75
2022-09-06T06:26:21.731Z,3.97
2022-09-06T06:29:25.378Z,3.67
2022-09-06T06:32:27.359Z,3.53
2022-09-06T06:35:29.388Z,3.83
2022-09-06T06:38:37.909Z,3.70
2022-09-06T06:41:39.767Z,4.00
2022-09-06T06:45:02.143Z,3.67
2022-09-06T06:48:04.242Z,5.07
2022-09-06T06:51:07.296Z,4.47
2022-09-06T06:54:09.335Z,4.13
2022-09-06T06:57:12.768Z,4.82
2022-09-06T07:00:15.407Z,4.55
2022-09-06T07:03:18.598Z,3.90
2022-09-06T07:06:21.464Z,3.85
2022-09-06T07:09:23.789Z,4.03
2022-09-06T07:12:26.123Z,3.70
2022-09-06T07:15:28.440Z,3.90
2022-09-06T07:18:30.591Z,4.68
2022-09-06T07:24:39.938Z,4.47
2022-09-06T07:30:47.148Z,3.75
2022-09-06T07:33:53.775Z,4.10
2022-09-06T07:36:57.760Z,4.50
2022-09-06T07:40:00.880Z,4.20
2022-09-06T07:43:02.750Z,4.45
2022-09-06T07:46:08.987Z,4.97
2022-09-06T07:49:10.851Z,6.88
2022-09-06T07:55:36.127Z,4.90
2022-09-06T07:58:40.806Z,5.55
2022-09-06T08:01:43.309Z,4.90
2022-09-06T08:04:51.034Z,4.95
2022-09-06T08:11:15.762Z,4.30
2022-09-06T08:14:17.865Z,4.50
2022-09-06T08:17:20.439Z,4.03
2022-09-06T08:20:22.307Z,4.07
2022-09-06T08:23:27.488Z,3.70
2022-09-06T08:26:31.541Z,3.78
2022-09-06T08:29:37.222Z,3.80
2022-09-06T08:32:41.300Z,2.88
2022-09-06T08:35:44.316Z,3.30
2022-09-06T08:38:46.443Z,3.10
2022-09-06T08:42:04.689Z,3.63
2022-09-06T08:45:19.266Z,2.83
2022-09-06T08:48:21.364Z,2.90
2022-09-06T08:51:54.266Z,2.92
2022-09-06T08:55:22.584Z,3.20
2022-09-06T08:58:59.654Z,2.40
2022-09-06T09:02:12.432Z,2.47
2022-09-06T09:05:22.406Z,2.58
2022-09-06T09:09:07.290Z,2.42
2022-09-06T09:12:21.378Z,2.75
2022-09-06T09:15:24.474Z,2.15
2022-09-06T09:18:30.381Z,2.30
2022-09-06T09:21:35.097Z,2.57
2022-09-06T09:24:37.762Z,2.08
2022-09-06T09:27:40.052Z,1.88
2022-09-06T09:30:55.471Z,2.25
2022-09-06T09:33:57.512Z,2.13
2022-09-06T09:44:04.656Z,2.13
2022-09-06T09:47:28.824Z,1.80
2022-09-06T09:50:33.631Z,2.10
2022-09-06T09:53:50.638Z,2.00
2022-09-06T09:56:53.173Z,1.88
2022-09-06T10:00:01.528Z,2.03
2022-09-06T10:03:16.827Z,1.98
2022-09-06T10:09:59.759Z,1.90
2022-09-06T10:13:26.986Z,1.98
2022-09-06T10:16:45.861Z,1.75
2022-09-06T10:19:49.117Z,2.00
2022-09-06T10:23:03.170Z,1.83
2022-09-06T10:26:17.839Z,1.60
2022-09-06T10:29:27.838Z,1.42
2022-09-06T10:32:48.157Z,1.88
2022-09-06T10:35:50.261Z,2.22
2022-09-06T10:39:07.958Z,1.75
2022-09-06T10:42:37.788Z,1.92
2022-09-06T10:45:59.408Z,2.10
2022-09-06T10:49:01.567Z,2.28
2022-09-06T10:52:07.722Z,2.40
2022-09-06T10:55:12.297Z,1.73
2022-09-06T10:58:25.884Z,1.70
2022-09-06T11:01:39.462Z,2.00
2022-09-06T11:11:45.352Z,1.50
2022-09-06T11:14:47.975Z,1.63
2022-09-06T11:18:06.519Z,1.55
2022-09-06T11:21:26.925Z,1.88
2022-09-06T11:24:47.441Z,1.30
2022-09-06T11:27:58.145Z,1.63
2022-09-06T11:31:00.719Z,1.90
2022-09-06T11:34:10.451Z,2.35
2022-09-06T11:37:28.266Z,1.70
2022-09-06T11:40:37.788Z,1.73
2022-09-06T11:43:53.648Z,1.50
2022-09-06T11:46:55.909Z,1.85
2022-09-06T11:49:58.052Z,1.77
2022-09-06T11:53:17.752Z,1.48
2022-09-06T11:56:28.501Z,1.63
2022-09-06T11:59:36.936Z,2.25
2022-09-06T12:02:41.366Z,2.25
2022-09-06T12:06:17.923Z,1.85
2022-09-06T12:09:34.511Z,1.63
2022-09-06T12:12:43.421Z,1.80
2022-09-06T12:15:51.751Z,1.65
2022-09-06T12:18:55.103Z,4.30
2022-09-06T12:21:56.942Z,1.58
2022-09-06T12:25:02.097Z,2.00
2022-09-06T12:28:05.868Z,1.87
2022-09-06T12:31:26.490Z,1.48
2022-09-06T12:34:37.181Z,1.02
2022-09-06T12:38:01.718Z,1.23
2022-09-06T12:41:05.148Z,1.42
2022-09-06T12:44:07.817Z,1.65
2022-09-06T12:47:16.749Z,1.30
2022-09-06T12:50:26.118Z,1.40
2022-09-06T12:53:28.350Z,1.38
2022-09-06T12:56:33.554Z,1.50
2022-09-06T12:59:35.872Z,1.45
2022-09-06T13:02:48.608Z,1.60
2022-09-06T13:05:51.765Z,1.02
2022-09-06T13:08:56.226Z,1.45
2022-09-06T13:12:08.607Z,1.30
2022-09-06T13:15:29.224Z,1.05
2022-09-06T13:18:39.877Z,1.00
2022-09-06T13:21:43.990Z,0.90
2022-09-06T13:24:47.960Z,1.35
2022-09-06T13:27:51.882Z,1.05
2022-09-06T13:31:11.071Z,1.00
2022-09-06T13:34:24.947Z,1.63
2022-09-06T13:37:32.192Z,1.85
2022-09-06T13:41:10.140Z,1.20
2022-09-06T13:44:17.611Z,1.20
2022-09-06T13:47:19.975Z,1.17
2022-09-06T13:50:28.076Z,1.33
2022-09-06T13:54:14.690Z,1.25
2022-09-06T13:57:50.039Z,1.10
2022-09-06T14:10:24.837Z,1.45
2022-09-06T14:13:26.776Z,1.30
2022-09-06T14:16:28.859Z,1.50
2022-09-06T14:19:31.836Z,1.17
2022-09-06T14:22:33.882Z,1.42
2022-09-06T14:25:37.209Z,1.15
2022-09-06T14:28:39.189Z,1.40
2022-09-06T14:31:41.148Z,1.48
2022-09-06T14:34:43.220Z,1.42
2022-09-06T14:37:45.335Z,1.25
2022-09-06T14:40:47.715Z,1.60
2022-09-06T14:43:55.284Z,2.20
2022-09-06T14:46:57.321Z,3.13
2022-09-06T14:50:00.697Z,1.92
2022-09-06T14:53:03.162Z,1.60
2022-09-06T14:56:05.709Z,1.85
2022-09-06T14:59:09.332Z,2.30
2022-09-06T15:02:11.307Z,1.98
2022-09-06T15:05:13.718Z,2.40
2022-09-06T15:08:15.907Z,2.20
2022-09-06T15:11:35.398Z,2.58
2022-09-06T15:14:38.104Z,1.70
2022-09-06T15:17:40.352Z,1.83
2022-09-06T15:20:43.623Z,2.03
2022-09-06T15:23:45.725Z,1.60
2022-09-06T15:26:47.981Z,1.50
2022-09-06T15:29:50.272Z,1.65
2022-09-06T15:32:52.245Z,1.60
2022-09-06T15:35:57.581Z,1.50
2022-09-06T15:39:01.273Z,1.50
2022-09-06T15:42:03.520Z,1.98
2022-09-06T15:45:06.632Z,2.00
2022-09-06T15:48:08.857Z,1.88
2022-09-06T15:51:12.536Z,1.38
2022-09-06T15:54:16.883Z,1.42
2022-09-06T15:57:18.979Z,1.45
2022-09-06T16:00:22.934Z,1.80
2022-09-06T16:03:25.114Z,1.52
2022-09-06T16:06:28.392Z,1.40
2022-09-06T16:09:31.986Z,1.15
2022-09-06T16:12:34.161Z,1.48
2022-09-06T16:15:36.058Z,1.13
2022-09-06T16:18:40.090Z,1.50
2022-09-06T16:21:43.595Z,1.60
2022-09-06T16:24:45.799Z,1.23
2022-09-06T16:27:47.894Z,1.58
2022-09-06T16:30:50.061Z,1.70
2022-09-06T16:33:53.865Z,1.08
2022-09-06T16:36:57.235Z,1.20
2022-09-06T16:39:59.365Z,1.40
2022-09-06T16:43:02.364Z,1.45
2022-09-06T16:46:05.058Z,1.20
2022-09-06T16:49:07.272Z,1.63
2022-09-06T16:52:09.182Z,1.63
2022-09-06T16:55:11.326Z,1.20
2022-09-06T16:58:14.005Z,1.30
2022-09-06T17:01:16.818Z,1.50
2022-09-06T17:04:19.084Z,1.30
2022-09-06T17:07:21.212Z,1.40
2022-09-06T17:10:23.428Z,1.65
2022-09-06T17:13:25.408Z,1.55
2022-09-06T17:16:45.967Z,1.80
2022-09-06T17:19:48.172Z,0.93
2022-09-06T17:22:51.193Z,1.98
2022-09-06T17:25:56.146Z,1.50
2022-09-06T17:28:58.922Z,1.83
2022-09-06T17:32:04.083Z,1.73
2022-09-06T17:35:07.546Z,1.88
2022-09-06T17:38:10.022Z,1.67
2022-09-06T17:41:21.704Z,1.50
2022-09-06T17:44:25.625Z,1.83
2022-09-06T17:47:28.284Z,1.63
2022-09-06T17:50:31.232Z,1.95
2022-09-06T17:53:34.333Z,1.50
2022-09-06T17:56:41.483Z,1.65
2022-09-06T17:59:43.495Z,1.63
2022-09-06T18:02:45.599Z,1.42
2022-09-06T18:05:47.661Z,1.52
2022-09-06T18:08:51.905Z,1.42
2022-09-06T18:11:53.897Z,1.55
2022-09-06T18:14:55.761Z,1.88
2022-09-06T18:17:58.548Z,1.77
2022-09-06T18:21:00.907Z,2.08
2022-09-06T18:24:03.914Z,1.58
2022-09-06T18:27:06.982Z,1.98
2022-09-06T18:30:14.607Z,1.67
2022-09-06T18:33:17.059Z,1.80
2022-09-06T18:36:19.922Z,1.85
2022-09-06T18:39:33.243Z,2.08
2022-09-06T18:42:37.835Z,2.10
2022-09-06T18:45:40.011Z,1.77
2022-09-06T18:48:42.372Z,1.83
2022-09-06T18:51:45.871Z,2.08
2022-09-06T18:54:49.160Z,1.58
2022-09-06T18:57:52.618Z,1.80
2022-09-06T19:01:05.690Z,1.90
2022-09-06T19:04:08.906Z,3.05
2022-09-06T19:07:11.105Z,2.22
2022-09-06T19:10:13.447Z,2.13
2022-09-06T19:13:16.520Z,2.10
2022-09-06T19:16:19.573Z,1.85
2022-09-06T19:19:23.855Z,1.90
2022-09-06T19:22:26.784Z,2.00
2022-09-06T19:25:28.862Z,2.67
2022-09-06T19:28:31.603Z,2.13
2022-09-06T19:31:35.987Z,1.92
2022-09-06T19:34:38.462Z,1.95
2022-09-06T19:37:40.983Z,2.50
2022-09-06T19:40:43.500Z,2.03
2022-09-06T19:43:50.279Z,2.33
2022-09-06T19:46:52.937Z,2.17
2022-09-06T19:49:55.276Z,2.10
2022-09-06T19:52:58.113Z,2.28
2022-09-06T19:56:00.645Z,2.10
2022-09-06T19:59:08.485Z,1.88
2022-09-06T20:02:10.948Z,2.35
2022-09-06T20:05:13.252Z,2.78
2022-09-06T20:08:15.550Z,2.10
2022-09-06T20:11:27.456Z,1.80
2022-09-06T20:14:29.773Z,2.42
2022-09-06T20:17:34.043Z,2.20
2022-09-06T20:20:36.469Z,2.50
2022-09-06T20:23:38.908Z,2.22
2022-09-06T20:26:41.028Z,1.90
2022-09-06T20:29:43.082Z,1.67
2022-09-06T20:32:45.468Z,1.75
2022-09-06T20:36:02.088Z,1.75
2022-09-06T20:39:04.672Z,1.90
2022-09-06T20:42:09.766Z,2.50
2022-09-06T20:45:13.543Z,2.60
2022-09-06T20:48:16.099Z,2.35
2022-09-06T20:51:20.595Z,2.05
2022-09-06T20:54:23.295Z,2.30
2022-09-06T20:57:25.494Z,1.80
2022-09-06T21:00:30.696Z,1.67
2022-09-06T21:03:32.756Z,1.90
2022-09-06T21:06:36.962Z,1.88
2022-09-06T21:09:39.458Z,1.70
2022-09-06T21:12:46.641Z,1.40
2022-09-06T21:15:49.483Z,1.35
2022-09-06T21:18:56.518Z,1.45
2022-09-06T21:21:58.587Z,1.38
2022-09-06T21:25:04.100Z,1.75
2022-09-06T21:28:06.135Z,1.40
2022-09-06T21:31:12.092Z,1.27
2022-09-06T21:34:17.231Z,1.20
2022-09-06T21:37:19.773Z,1.50
2022-09-06T21:40:21.773Z,1.40
2022-09-06T21:43:30.075Z,1.90
2022-09-06T21:46:39.073Z,1.30
2022-09-06T21:49:41.298Z,1.30
2022-09-06T21:52:45.805Z,1.48
2022-09-06T21:55:48.286Z,1.20
2022-09-06T21:58:57.702Z,1.90
2022-09-06T22:02:00.468Z,1.70
2022-09-06T22:05:06.721Z,1.58
2022-09-06T22:08:11.009Z,1.73
2022-09-06T22:11:16.836Z,1.60
2022-09-06T22:14:22.069Z,1.88
2022-09-06T22:17:24.268Z,1.70
2022-09-06T22:20:31.165Z,1.50
2022-09-06T22:23:33.445Z,1.80
2022-09-06T22:26:40.283Z,1.50
2022-09-06T22:32:48.520Z,1.50
2022-09-06T22:35:51.274Z,1.80
2022-09-06T22:38:59.291Z,1.70
2022-09-06T22:42:01.704Z,1.77
2022-09-06T22:45:04.283Z,2.08
2022-09-06T22:48:06.576Z,2.17
2022-09-06T22:51:09.961Z,2.35
2022-09-06T22:54:12.104Z,1.98
2022-09-06T22:57:14.112Z,2.47
2022-09-06T23:00:16.269Z,1.92
2022-09-06T23:03:18.446Z,2.30
2022-09-06T23:06:24.186Z,1.73
2022-09-06T23:09:26.261Z,2.13
2022-09-06T23:12:31.933Z,2.50
2022-09-06T23:15:42.210Z,2.28
2022-09-06T23:18:45.202Z,2.40
2022-09-06T23:21:48.839Z,2.45
2022-09-06T23:24:51.357Z,2.60
2022-09-06T23:27:54.592Z,1.95
2022-09-06T23:31:10.210Z,2.30
2022-09-06T23:34:12.474Z,2.28
2022-09-06T23:37:20.626Z,2.97
2022-09-06T23:40:22.754Z,3.67
2022-09-06T23:43:28.992Z,4.00
2022-09-06T23:46:32.095Z,3.22
2022-09-06T23:49:37.490Z,2.47
2022-09-06T23:52:39.646Z,2.42
2022-09-06T23:55:45.326Z,2.10
2022-09-06T23:58:48.330Z,3.33
